• Join FlightAware (Why Join?)
  • Login
  • US Flag 
05:16PM EDT


 

Airport Tracker/Info


-or-


 

Live Flight TrackerFlight Track Log ✈ UAL4180 ✈ 18-May-2013 ✈ KIAH - KMOB

Flight Track Log - Related Links

Times and Time Zones

All times are in EDT time to prevent confusion due to time zone crossing. See the UAL4180 flight status page for this flight to view local times or setup timezone preferences in your user account.

Time Position Orientation Groundspeed Altitude Reporting Facility
EDT Latitude Longitude Course Direction KTS MPH feet Rate Location/Type
12:34PM 29.9639 -95.3433 97° East 149 171 600  Level Houston Center
12:35PM 29.9472 -95.3236 134° Southeast 182 209 1,600 1,800 Climbing Houston Center
12:36PM 29.9150 -95.2739 127° Southeast 208 239 3,300 2,040 Climbing Houston Center
12:37PM 29.9284 -94.9716 97° East  Level FlightAware Approximate
12:37PM 29.8811 -95.2003 118° Southeast 259 298 5,800  Level Houston Center
12:38PM 29.9153 -94.8502 95° East  Level FlightAware Approximate
12:38PM 29.8803 -95.1119 91° East 273 314 8,600  Level Houston Center
12:39PM 29.9052 -94.7283 95° East  Level FlightAware Approximate
12:39PM 29.8775 -95.0233 92° East 274 315 10,400  Level Houston Center
12:40PM 29.8934 -94.6067 97° East  Level FlightAware Approximate
12:40PM 29.8761 -94.9156 91° East 324 373 11,000  Level Houston Center
12:41PM 29.8728 -94.7722 92° East 369 425 12,400 1,380 Climbing Houston Center
12:42PM 29.8700 -94.6517 91° East 376 433 13,900 1,440 Climbing Houston Center
12:43PM 29.8678 -94.5317 91° East 374 430 15,400 1,320 Climbing Houston Center
12:44PM 29.8647 -94.4092 92° East 380 437 16,700 1,080 Climbing Houston Center
12:45PM 29.8608 -94.2831 92° East 391 450 17,700 960 Climbing Houston Center
12:46PM 29.8572 -94.1600 92° East 400 460 18,700 1,080 Climbing Houston Center
12:47PM 29.8644 -94.0036 87° East 411 473 20,000 1,140 Climbing Houston Center
12:48PM 29.8872 -93.8742 78° East 415 478 21,100 1,020 Climbing Houston Center
12:49PM 29.9103 -93.7417 79° East 422 486 22,200 1,020 Climbing Houston Center
12:50PM 29.9331 -93.6078 79° East 428 493 23,300 1,020 Climbing Houston Center
12:51PM 29.9550 -93.4742 79° East 429 494 24,400 1,140 Climbing Houston Center
12:52PM 29.9822 -93.3133 79° East 430 495 25,700 1,140 Climbing Houston Center
12:53PM 30.0058 -93.1775 79° East 434 499 26,800 1,020 Climbing Houston Center
12:54PM 30.0283 -93.0403 79° East 439 505 27,900 960 Climbing Houston Center
12:55PM 30.0522 -92.9056 78° East 432 497 28,900 480 Climbing Houston Center
12:56PM 30.0756 -92.7625 79° East 452 520 29,000  Climbing Houston Center
12:57PM 30.1042 -92.5842 79° East 474 545 29,000  Level Houston Center
12:58PM 30.1308 -92.4297 79° East 488 562 29,000  Level Houston Center
12:59PM 30.1553 -92.2739 80° East 493 567 29,000  Level Houston Center
01:01PM 30.1836 -92.1167 78° East 499 574 29,000  Level Houston Center
01:02PM 30.2064 -91.9611 80° East 497 572 29,000  Level Houston Center
01:03PM 30.2347 -91.7792 80° East 492 566 29,000  Level Houston Center
01:04PM 30.2553 -91.6528 79° East 490 564 29,000  Level Houston Center
01:05PM 30.2839 -91.4686 80° East 486 559 29,000  Level Houston Center
01:06PM 30.3078 -91.3144 80° East 487 560 29,000  Level Houston Center
01:07PM 30.3319 -91.1614 80° East 486 559 29,000  Level Houston Center
01:08PM 30.3550 -91.0078 80° East 485 558 29,000  Level Houston Center
01:09PM 30.3783 -90.8547 80° East 485 558 29,000  Level Houston Center
01:10PM 30.4006 -90.7011 80° East 486 559 29,000 -240 Level Houston Center
01:11PM 30.4283 -90.5164 80° East 488 562 28,600 -840 Descending Houston Center
01:12PM 30.4508 -90.3608 80° East 489 563 27,300 -1,260 Descending Houston Center
01:13PM 30.4739 -90.2044 80° East 492 566 26,100 -1,140 Descending Houston Center
01:14PM 30.4967 -90.0506 80° East 485 558 25,000 -1,140 Descending Houston Center
01:15PM 30.5183 -89.8953 81° East 482 555 23,800 -1,200 Descending Houston Center
01:16PM 30.5397 -89.7394 81° East 479 551 22,600 -1,500 Descending Houston Center
01:17PM 30.5600 -89.5911 81° East 462 532 20,800 -1,800 Descending Houston Center
01:18PM 30.5806 -89.4503 80° East 442 509 18,900 -1,800 Descending Houston Center
01:19PM 30.5972 -89.3178 82° East 420 483 17,200 -1,920 Descending Houston Center
01:20PM 30.6175 -89.1658 81° East 400 460 15,000 -2,040 Descending Houston Center
01:21PM 30.6339 -89.0408 81° East 392 451 13,100 -1,740 Descending Houston Center
01:22PM 30.6489 -88.9278 81° East 386 444 11,500 -1,380 Descending Houston Center
01:23PM 30.6736 -88.8186 75° East 353 406 10,300 -1,440 Descending Houston Center
01:24PM 30.7042 -88.7089 72° East 300 345 8,600 -2,220 Descending Houston Center
01:25PM 30.7292 -88.6244 71° East 283 326 5,800 -2,220 Descending Houston Center
01:26PM 30.7539 -88.5436 70° East 272 313 4,100 -1,080 Descending Houston Center
01:27PM 30.7794 -88.4639 70° East 265 305 3,700 -1,020 Descending Houston Center
01:28PM 30.7894 -88.3825 82° East 265 305 2,100 -1,560 Descending Houston Center